Time;durP1;ratioP1;P1;durP2;ratioP2;P2;SDS_P1;SDS_P2;PMS_P1;PMS_P2;Temp;Humidity;BMP_temperature;BMP_pressure;BME280_temperature;BME280_humidity;BME280_pressure;Samples;Min_cycle;Max_cycle;Signal;HPM_P1;HPM_P2
2022/08/20 00:02:11;;;;;;;20.15;13.40;;;;;;;;;;5043793;28;20484;-59
2022/08/20 00:04:37;;;;;;;17.98;13.55;;;;;;;;;;5043707;28;20025;-59
2022/08/20 00:07:03;;;;;;;17.95;12.18;;;;;;;;;;5045265;28;20033;-59
2022/08/20 00:09:29;;;;;;;19.05;13.38;;;;;;;;;;5047459;28;20048;-59
2022/08/20 00:11:55;;;;;;;13.60;11.65;;;;;;;;;;5046735;28;20061;-60
2022/08/20 00:14:21;;;;;;;18.52;12.35;;;;;;;;;;5040995;28;20033;-59
2022/08/20 00:16:47;;;;;;;15.45;11.55;;;;;;;;;;5048647;28;20036;-59
2022/08/20 00:19:13;;;;;;;14.98;12.10;;;;;;;;;;5050523;28;20477;-59
2022/08/20 00:21:40;;;;;;;15.00;12.07;;;;;;;;;;5041160;28;20037;-58
2022/08/20 00:24:06;;;;;;;16.50;11.50;;;;;;;;;;5050020;28;20102;-59
2022/08/20 00:26:32;;;;;;;15.18;11.35;;;;;;;;;;5050338;28;20467;-59
2022/08/20 00:28:58;;;;;;;15.20;11.27;;;;;;;;;;5050587;28;20033;-59
2022/08/20 00:31:24;;;;;;;16.70;10.80;;;;;;;;;;5048748;28;20029;-59
2022/08/20 00:33:51;;;;;;;14.55;11.25;;;;;;;;;;5046341;28;20025;-59
2022/08/20 00:36:17;;;;;;;14.27;11.05;;;;;;;;;;5050267;28;20025;-59
2022/08/20 00:38:44;;;;;;;12.88;9.80;;;;;;;;;;5041371;28;20083;-59
2022/08/20 00:41:12;;;;;;;14.02;11.10;;;;;;;;;;5050551;28;20032;-59
2022/08/20 00:43:38;;;;;;;20.75;10.50;;;;;;;;;;5046078;28;20056;-59
2022/08/20 00:46:09;;;;;;;15.73;10.05;;;;;;;;;;5037613;28;20354;-59
2022/08/20 00:48:36;;;;;;;12.68;9.90;;;;;;;;;;5048549;28;20083;-59
2022/08/20 00:51:11;;;;;;;11.80;10.40;;;;;;;;;;5050659;28;20047;-59
2022/08/20 00:53:37;;;;;;;14.25;9.88;;;;;;;;;;5048588;28;20029;-59
2022/08/20 00:56:04;;;;;;;13.45;10.27;;;;;;;;;;5049597;28;20460;-59
2022/08/20 00:58:30;;;;;;;14.40;10.73;;;;;;;;;;5047251;28;20079;-59
2022/08/20 01:00:56;;;;;;;15.57;11.35;;;;;;;;;;5047335;28;20029;-61
2022/08/20 01:03:22;;;;;;;13.70;9.57;;;;;;;;;;5046055;28;20048;-62
2022/08/20 01:05:50;;;;;;;10.38;9.27;;;;;;;;;;5047622;28;20032;-62
2022/08/20 01:08:17;;;;;;;14.65;10.80;;;;;;;;;;5047941;28;20162;-62
2022/08/20 01:10:46;;;;;;;11.68;9.18;;;;;;;;;;5036665;28;20029;-62
2022/08/20 01:13:14;;;;;;;10.52;9.10;;;;;;;;;;5048688;28;20727;-62
2022/08/20 01:15:41;;;;;;;16.23;10.60;;;;;;;;;;5044957;28;20025;-62
2022/08/20 01:18:09;;;;;;;12.68;10.20;;;;;;;;;;5049801;28;20052;-61
2022/08/20 01:20:50;;;;;;;14.18;11.00;;;;;;;;;;5043135;28;20108;-61
2022/08/20 01:23:29;;;;;;;11.80;10.35;;;;;;;;;;5038530;28;20098;-61
2022/08/20 01:26:04;;;;;;;13.98;10.30;;;;;;;;;;5050743;28;20032;-62
2022/08/20 01:28:33;;;;;;;12.52;10.07;;;;;;;;;;5048402;28;20009;-61
2022/08/20 01:30:59;;;;;;;13.50;11.32;;;;;;;;;;5042931;28;20037;-61
2022/08/20 01:33:25;;;;;;;14.45;11.25;;;;;;;;;;5045397;28;20362;-61
2022/08/20 01:35:52;;;;;;;16.27;11.45;;;;;;;;;;5047727;28;20075;-61
2022/08/20 01:38:18;;;;;;;15.30;10.45;;;;;;;;;;5050148;28;20025;-62
2022/08/20 01:41:07;;;;;;;13.77;11.73;;;;;;;;;;5042901;28;20116;-61
2022/08/20 01:43:33;;;;;;;14.45;12.10;;;;;;;;;;5043811;28;20105;-61
2022/08/20 01:46:00;;;;;;;14.90;11.68;;;;;;;;;;5043231;28;20108;-61
2022/08/20 01:48:26;;;;;;;16.58;12.77;;;;;;;;;;5046502;28;20013;-61
2022/08/20 01:51:03;;;;;;;16.25;13.25;;;;;;;;;;5046179;28;20056;-59
2022/08/20 01:53:38;;;;;;;19.13;13.52;;;;;;;;;;5045618;28;20029;-62
2022/08/20 01:56:09;;;;;;;18.30;12.98;;;;;;;;;;5049511;28;20033;-62
2022/08/20 01:58:37;;;;;;;16.95;12.93;;;;;;;;;;5051669;28;20039;-61
2022/08/20 02:01:04;;;;;;;18.13;14.00;;;;;;;;;;5050833;28;20029;-61
2022/08/20 02:03:30;;;;;;;16.27;13.10;;;;;;;;;;5049445;28;20086;-61
2022/08/20 02:05:59;;;;;;;19.13;13.30;;;;;;;;;;5051030;28;20103;-61
2022/08/20 02:08:25;;;;;;;21.25;15.38;;;;;;;;;;5052358;28;20033;-62
2022/08/20 02:10:51;;;;;;;27.08;16.55;;;;;;;;;;5051361;28;20044;-62
2022/08/20 02:13:17;;;;;;;19.90;15.10;;;;;;;;;;5052532;28;20498;-60
2022/08/20 02:15:43;;;;;;;22.08;16.73;;;;;;;;;;5052353;28;20037;-60
2022/08/20 02:18:11;;;;;;;21.25;15.80;;;;;;;;;;5051065;28;20032;-61
2022/08/20 02:20:37;;;;;;;23.98;16.60;;;;;;;;;;5046522;28;20025;-61
2022/08/20 02:23:03;;;;;;;24.20;16.63;;;;;;;;;;5046751;28;20478;-61
2022/08/20 02:25:31;;;;;;;24.83;15.73;;;;;;;;;;5047844;28;20029;-61
2022/08/20 02:27:59;;;;;;;22.63;16.13;;;;;;;;;;5049583;28;20021;-61
2022/08/20 02:30:31;;;;;;;24.58;17.83;;;;;;;;;;5044020;28;20487;-61
2022/08/20 02:32:58;;;;;;;25.80;17.37;;;;;;;;;;5051526;28;20112;-61
2022/08/20 02:35:24;;;;;;;21.35;16.15;;;;;;;;;;5049195;28;20405;-61
2022/08/20 02:37:51;;;;;;;24.30;16.50;;;;;;;;;;5048653;28;20032;-62
2022/08/20 02:40:18;;;;;;;27.45;17.42;;;;;;;;;;5051838;28;20381;-62
2022/08/20 02:42:44;;;;;;;32.45;19.63;;;;;;;;;;5051855;28;20449;-61
2022/08/20 02:45:11;;;;;;;24.67;17.25;;;;;;;;;;5053114;28;20107;-61
2022/08/20 02:47:38;;;;;;;28.17;18.50;;;;;;;;;;5050310;28;20083;-61
2022/08/20 02:50:05;;;;;;;28.27;20.00;;;;;;;;;;5045489;28;20029;-61
2022/08/20 02:52:31;;;;;;;29.00;19.77;;;;;;;;;;5047500;28;20028;-61
2022/08/20 02:54:57;;;;;;;28.52;19.13;;;;;;;;;;5050290;28;20416;-61
2022/08/20 02:57:23;;;;;;;27.67;19.30;;;;;;;;;;5052835;28;20108;-59
2022/08/20 02:59:51;;;;;;;34.33;21.38;;;;;;;;;;5050898;28;20160;-62
2022/08/20 03:02:17;;;;;;;30.40;20.77;;;;;;;;;;5048738;28;20495;-61
2022/08/20 03:04:43;;;;;;;28.83;19.30;;;;;;;;;;5050098;28;20025;-61
2022/08/20 03:07:10;;;;;;;24.95;17.58;;;;;;;;;;5050898;28;20036;-61
2022/08/20 03:09:36;;;;;;;28.05;20.05;;;;;;;;;;5048267;28;20120;-61
2022/08/20 03:12:03;;;;;;;26.30;18.02;;;;;;;;;;5051406;28;20035;-61
2022/08/20 03:14:30;;;;;;;24.48;18.23;;;;;;;;;;5050258;28;20534;-62
2022/08/20 03:16:56;;;;;;;27.48;18.75;;;;;;;;;;5049663;28;20036;-61
2022/08/20 03:19:21;;;;;;;28.73;19.80;;;;;;;;;;5051050;28;20029;-61
2022/08/20 03:21:48;;;;;;;35.10;21.30;;;;;;;;;;5050701;28;20041;-62
2022/08/20 03:24:14;;;;;;;28.90;20.50;;;;;;;;;;5050908;28;20035;-61
2022/08/20 03:26:40;;;;;;;30.05;20.85;;;;;;;;;;5049832;28;20107;-61
2022/08/20 03:29:06;;;;;;;28.63;20.17;;;;;;;;;;5045762;28;20421;-61
2022/08/20 03:31:32;;;;;;;33.03;21.80;;;;;;;;;;5050760;28;20024;-61
2022/08/20 03:33:58;;;;;;;30.60;20.83;;;;;;;;;;5051811;28;20503;-61
2022/08/20 03:36:26;;;;;;;33.22;20.75;;;;;;;;;;5047942;28;20391;-61
2022/08/20 03:38:52;;;;;;;32.55;22.15;;;;;;;;;;5042298;28;20055;-61
2022/08/20 03:41:18;;;;;;;34.85;23.33;;;;;;;;;;5049979;28;20025;-61
2022/08/20 03:43:45;;;;;;;36.95;23.10;;;;;;;;;;5046862;28;20033;-61
2022/08/20 03:46:11;;;;;;;32.92;22.25;;;;;;;;;;5049417;28;20106;-61
2022/08/20 03:48:37;;;;;;;35.03;21.52;;;;;;;;;;5051604;28;20067;-61
2022/08/20 03:51:03;;;;;;;37.72;24.08;;;;;;;;;;5042950;28;20474;-61
2022/08/20 03:53:30;;;;;;;37.40;23.73;;;;;;;;;;5050641;28;20120;-62
2022/08/20 03:55:59;;;;;;;38.55;22.05;;;;;;;;;;5051409;28;20044;-61
2022/08/20 03:58:25;;;;;;;26.52;19.33;;;;;;;;;;5044998;28;20021;-61
2022/08/20 04:00:51;;;;;;;34.88;22.13;;;;;;;;;;5042893;28;20033;-61
2022/08/20 04:03:18;;;;;;;34.97;22.60;;;;;;;;;;5040092;28;20040;-61
2022/08/20 04:05:44;;;;;;;34.78;22.67;;;;;;;;;;5050714;28;20107;-61
2022/08/20 04:08:14;;;;;;;33.92;21.67;;;;;;;;;;5046549;28;20045;-62
2022/08/20 04:10:41;;;;;;;31.98;22.30;;;;;;;;;;5049794;28;20463;-61
2022/08/20 04:13:07;;;;;;;33.05;22.02;;;;;;;;;;5051308;28;20032;-61
2022/08/20 04:15:35;;;;;;;36.35;23.92;;;;;;;;;;5048882;28;20476;-61
2022/08/20 04:18:03;;;;;;;36.15;24.92;;;;;;;;;;5042161;28;20017;-61
2022/08/20 04:20:29;;;;;;;43.35;25.75;;;;;;;;;;5049977;28;20460;-61
2022/08/20 04:22:56;;;;;;;35.47;22.33;;;;;;;;;;5039395;28;20022;-61
2022/08/20 04:25:22;;;;;;;36.78;23.60;;;;;;;;;;5050097;28;20029;-61
2022/08/20 04:27:49;;;;;;;41.53;26.08;;;;;;;;;;5048384;28;20025;-61
2022/08/20 04:30:17;;;;;;;41.60;25.42;;;;;;;;;;5040689;28;20033;-61
2022/08/20 04:32:43;;;;;;;42.03;25.05;;;;;;;;;;5047399;28;20035;-61
2022/08/20 04:35:13;;;;;;;41.15;25.00;;;;;;;;;;5040944;28;20120;-61
2022/08/20 04:37:39;;;;;;;39.03;22.75;;;;;;;;;;5049782;28;20783;-61
2022/08/20 04:42:51;;;;;;;38.85;22.80;;;;;;;;;;5050305;28;20189;-61
2022/08/20 04:45:17;;;;;;;36.40;23.45;;;;;;;;;;5047854;28;20024;-61
2022/08/20 04:47:43;;;;;;;42.85;25.17;;;;;;;;;;5043159;28;20024;-60
2022/08/20 04:50:11;;;;;;;36.33;23.83;;;;;;;;;;5042197;28;20047;-61
2022/08/20 04:52:37;;;;;;;38.88;23.73;;;;;;;;;;5048448;28;20032;-61
2022/08/20 04:55:04;;;;;;;42.90;25.88;;;;;;;;;;5051280;28;20040;-61
2022/08/20 04:57:30;;;;;;;41.38;24.88;;;;;;;;;;5045474;28;20037;-61
2022/08/20 04:59:56;;;;;;;43.10;26.73;;;;;;;;;;5041272;28;20124;-61
2022/08/20 05:02:22;;;;;;;38.85;25.00;;;;;;;;;;5043980;28;20037;-61
2022/08/20 05:04:48;;;;;;;42.70;25.00;;;;;;;;;;5046952;28;20372;-61
2022/08/20 05:07:15;;;;;;;39.17;24.77;;;;;;;;;;5048545;28;20025;-61
2022/08/20 05:09:42;;;;;;;38.65;23.98;;;;;;;;;;5049871;28;20477;-61
2022/08/20 05:12:08;;;;;;;38.33;25.42;;;;;;;;;;5041728;28;20043;-61
2022/08/20 05:14:34;;;;;;;39.90;24.58;;;;;;;;;;5046541;28;20030;-61
2022/08/20 05:17:06;;;;;;;40.28;24.67;;;;;;;;;;5043964;28;20156;-61
2022/08/20 05:19:33;;;;;;;40.07;24.07;;;;;;;;;;5038038;28;20029;-61
2022/08/20 05:22:00;;;;;;;39.97;24.27;;;;;;;;;;5046895;28;20033;-61
2022/08/20 05:24:26;;;;;;;37.53;23.83;;;;;;;;;;5047197;28;20040;-61
2022/08/20 05:26:54;;;;;;;37.20;24.83;;;;;;;;;;5050616;28;20396;-61
2022/08/20 05:29:21;;;;;;;41.28;23.98;;;;;;;;;;5051133;28;20017;-61
2022/08/20 05:31:47;;;;;;;37.38;24.27;;;;;;;;;;5043698;28;20037;-61
2022/08/20 05:34:13;;;;;;;33.00;22.35;;;;;;;;;;5047874;28;20025;-61
2022/08/20 05:36:40;;;;;;;41.55;24.58;;;;;;;;;;5048073;28;20028;-61
2022/08/20 05:39:07;;;;;;;38.70;23.15;;;;;;;;;;5052915;28;20114;-60
2022/08/20 05:41:33;;;;;;;39.53;24.70;;;;;;;;;;5048072;28;20044;-61
2022/08/20 05:44:00;;;;;;;37.80;23.92;;;;;;;;;;5053339;28;20369;-60
2022/08/20 05:46:26;;;;;;;34.65;22.15;;;;;;;;;;5049996;28;20480;-61
2022/08/20 05:48:52;;;;;;;35.30;23.35;;;;;;;;;;5047424;28;20025;-61
2022/08/20 05:51:18;;;;;;;38.75;24.70;;;;;;;;;;5045527;28;20111;-61
2022/08/20 05:53:44;;;;;;;39.38;25.08;;;;;;;;;;5048482;28;20132;-61
2022/08/20 05:56:10;;;;;;;37.72;24.05;;;;;;;;;;5050679;28;20037;-60
2022/08/20 05:58:36;;;;;;;37.65;25.92;;;;;;;;;;5054008;28;20057;-62
2022/08/20 06:01:03;;;;;;;31.38;22.77;;;;;;;;;;5050679;28;20028;-61
2022/08/20 06:06:14;;;;;;;34.95;23.88;;;;;;;;;;5047357;28;20118;-62
2022/08/20 06:08:40;;;;;;;39.67;25.48;;;;;;;;;;5046506;28;20055;-62
2022/08/20 06:11:06;;;;;;;37.22;23.38;;;;;;;;;;5050406;28;20577;-62
2022/08/20 06:13:32;;;;;;;36.60;24.02;;;;;;;;;;5050488;28;20094;-62
2022/08/20 06:15:58;;;;;;;33.95;23.20;;;;;;;;;;5048715;28;20036;-62
2022/08/20 06:18:24;;;;;;;33.42;21.52;;;;;;;;;;5053223;28;20025;-62
2022/08/20 06:20:50;;;;;;;35.15;22.52;;;;;;;;;;5049528;28;20480;-62
2022/08/20 06:23:17;;;;;;;34.85;22.75;;;;;;;;;;5049681;28;20033;-62
2022/08/20 06:25:43;;;;;;;31.70;21.92;;;;;;;;;;5041801;28;20651;-62
2022/08/20 06:28:09;;;;;;;36.75;23.52;;;;;;;;;;5045320;28;20024;-62
2022/08/20 06:30:35;;;;;;;37.55;24.05;;;;;;;;;;5052947;28;20075;-62
2022/08/20 06:33:01;;;;;;;42.90;26.77;;;;;;;;;;5046867;28;20459;-62
2022/08/20 06:35:27;;;;;;;40.15;24.88;;;;;;;;;;5049045;28;20025;-62
2022/08/20 06:37:53;;;;;;;38.47;23.58;;;;;;;;;;5051137;28;20078;-61
2022/08/20 06:40:25;;;;;;;39.72;24.50;;;;;;;;;;5051411;28;20122;-62
2022/08/20 06:42:51;;;;;;;42.50;25.85;;;;;;;;;;5053162;28;20522;-62
2022/08/20 06:45:19;;;;;;;41.97;26.15;;;;;;;;;;5047931;28;20033;-62
2022/08/20 06:47:45;;;;;;;41.80;25.65;;;;;;;;;;5048146;28;20091;-62
2022/08/20 06:50:14;;;;;;;41.85;26.42;;;;;;;;;;5053580;28;20024;-62
2022/08/20 06:52:40;;;;;;;42.25;26.13;;;;;;;;;;5052719;28;20036;-62
2022/08/20 06:55:08;;;;;;;38.88;26.48;;;;;;;;;;5052300;28;20052;-62
2022/08/20 06:57:35;;;;;;;38.95;24.35;;;;;;;;;;5049171;28;20130;-62
2022/08/20 07:00:01;;;;;;;43.35;25.40;;;;;;;;;;5048096;28;20464;-62
2022/08/20 07:02:27;;;;;;;40.72;24.13;;;;;;;;;;5047146;28;20061;-63
2022/08/20 07:04:54;;;;;;;41.50;26.20;;;;;;;;;;5052546;28;20040;-62
2022/08/20 07:07:20;;;;;;;39.95;25.13;;;;;;;;;;5051438;28;20078;-62
2022/08/20 07:09:46;;;;;;;38.67;25.75;;;;;;;;;;5051051;28;20044;-62
2022/08/20 07:12:12;;;;;;;35.90;23.65;;;;;;;;;;5045978;28;20401;-62
2022/08/20 07:14:38;;;;;;;37.35;23.92;;;;;;;;;;5049383;28;20136;-62
2022/08/20 07:17:05;;;;;;;36.60;26.45;;;;;;;;;;5052372;28;20100;-62
2022/08/20 07:19:31;;;;;;;39.10;25.58;;;;;;;;;;5053393;28;20536;-61
2022/08/20 07:21:57;;;;;;;41.63;25.58;;;;;;;;;;5050932;28;20052;-62
2022/08/20 07:24:23;;;;;;;41.85;26.35;;;;;;;;;;5049099;28;20029;-61
2022/08/20 07:26:51;;;;;;;41.60;25.30;;;;;;;;;;5052580;28;20036;-62
2022/08/20 07:29:18;;;;;;;38.95;26.63;;;;;;;;;;5048620;28;20029;-61
2022/08/20 07:34:30;;;;;;;39.10;25.10;;;;;;;;;;5050604;28;20047;-62
2022/08/20 07:36:59;;;;;;;35.67;23.83;;;;;;;;;;5047641;28;20439;-62
2022/08/20 07:39:25;;;;;;;37.97;25.48;;;;;;;;;;5051661;28;20027;-62
2022/08/20 07:42:01;;;;;;;39.30;25.65;;;;;;;;;;5043507;28;20075;-62
2022/08/20 07:44:28;;;;;;;38.35;23.77;;;;;;;;;;5050131;28;20420;-62
2022/08/20 07:46:54;;;;;;;38.38;25.23;;;;;;;;;;5050503;28;20048;-62
2022/08/20 07:49:21;;;;;;;42.17;26.92;;;;;;;;;;5050313;28;20033;-62
2022/08/20 07:51:47;;;;;;;34.60;23.25;;;;;;;;;;5046055;28;20044;-62
2022/08/20 07:54:12;;;;;;;42.03;27.55;;;;;;;;;;5050843;28;20028;-61
2022/08/20 07:56:38;;;;;;;41.45;25.27;;;;;;;;;;5050592;28;20404;-62
2022/08/20 07:59:05;;;;;;;42.78;27.02;;;;;;;;;;5051133;28;20029;-61
2022/08/20 08:01:31;;;;;;;39.90;25.27;;;;;;;;;;5048227;28;20048;-61
2022/08/20 08:03:58;;;;;;;40.60;25.40;;;;;;;;;;5047840;28;20044;-62
2022/08/20 08:06:24;;;;;;;46.40;27.83;;;;;;;;;;5049613;28;20030;-62
2022/08/20 08:08:51;;;;;;;42.78;27.20;;;;;;;;;;5051908;28;20089;-62
2022/08/20 08:11:18;;;;;;;36.95;24.30;;;;;;;;;;5052060;28;20025;-62
2022/08/20 08:13:44;;;;;;;39.30;25.92;;;;;;;;;;5052436;28;20056;-62
2022/08/20 08:16:10;;;;;;;40.10;26.73;;;;;;;;;;5051736;28;20490;-60
2022/08/20 08:18:38;;;;;;;39.00;24.98;;;;;;;;;;5050463;28;20032;-62
2022/08/20 08:21:08;;;;;;;37.08;23.10;;;;;;;;;;5047107;28;20098;-62
2022/08/20 08:23:34;;;;;;;41.05;25.13;;;;;;;;;;5044859;28;20381;-62
2022/08/20 08:26:00;;;;;;;36.88;25.02;;;;;;;;;;5050866;28;20479;-62
2022/08/20 08:28:29;;;;;;;40.03;25.58;;;;;;;;;;5051102;28;20384;-62
2022/08/20 08:30:56;;;;;;;37.47;23.80;;;;;;;;;;5051210;28;20033;-62
2022/08/20 08:33:27;;;;;;;39.92;25.42;;;;;;;;;;5047818;28;20440;-61
2022/08/20 08:35:54;;;;;;;33.15;23.70;;;;;;;;;;5048620;28;20100;-62
2022/08/20 08:38:21;;;;;;;37.70;24.48;;;;;;;;;;5050770;28;20032;-62
2022/08/20 08:40:48;;;;;;;42.45;25.73;;;;;;;;;;5048853;28;20037;-62
2022/08/20 08:43:20;;;;;;;32.40;21.63;;;;;;;;;;5046996;28;20025;-62
2022/08/20 08:45:50;;;;;;;29.13;20.38;;;;;;;;;;5050919;28;20492;-62
2022/08/20 08:48:17;;;;;;;27.58;19.00;;;;;;;;;;5052150;28;20032;-62
2022/08/20 08:50:46;;;;;;;27.27;18.67;;;;;;;;;;5049824;28;20017;-62
2022/08/20 08:53:18;;;;;;;27.67;19.23;;;;;;;;;;5049400;28;20120;-62
2022/08/20 08:55:45;;;;;;;28.83;19.80;;;;;;;;;;5051069;28;20082;-62
2022/08/20 08:58:11;;;;;;;25.08;17.27;;;;;;;;;;5051361;28;20100;-62
2022/08/20 09:00:37;;;;;;;25.73;18.35;;;;;;;;;;5046859;28;20518;-62
2022/08/20 09:03:03;;;;;;;23.33;16.60;;;;;;;;;;5046063;28;20083;-62
2022/08/20 09:05:40;;;;;;;26.48;18.65;;;;;;;;;;5051207;28;20412;-62
2022/08/20 09:08:08;;;;;;;26.80;18.15;;;;;;;;;;5038222;28;20083;-62
2022/08/20 09:10:34;;;;;;;28.48;18.02;;;;;;;;;;5036803;28;20435;-62
2022/08/20 09:13:00;;;;;;;22.42;16.13;;;;;;;;;;5050557;28;20104;-62
2022/08/20 09:15:26;;;;;;;28.63;18.38;;;;;;;;;;5050099;28;20021;-62
2022/08/20 09:17:52;;;;;;;27.38;17.90;;;;;;;;;;5050583;28;20027;-62
2022/08/20 09:20:18;;;;;;;29.60;19.08;;;;;;;;;;5048183;28;20104;-62
2022/08/20 09:22:44;;;;;;;23.23;16.25;;;;;;;;;;5051060;28;20056;-62
2022/08/20 09:25:10;;;;;;;25.08;17.23;;;;;;;;;;5050095;28;20036;-63
2022/08/20 09:27:36;;;;;;;24.45;16.77;;;;;;;;;;5049752;28;20025;-62
2022/08/20 09:30:02;;;;;;;28.38;18.60;;;;;;;;;;5049047;28;20027;-62
2022/08/20 09:32:28;;;;;;;29.75;18.58;;;;;;;;;;5047676;28;20120;-63
2022/08/20 09:34:55;;;;;;;24.98;18.10;;;;;;;;;;5044134;28;20397;-62
2022/08/20 09:37:21;;;;;;;26.40;16.95;;;;;;;;;;5046259;28;20704;-62
2022/08/20 09:39:48;;;;;;;27.00;16.05;;;;;;;;;;5047980;28;20116;-62
2022/08/20 09:42:15;;;;;;;24.60;17.63;;;;;;;;;;5040758;28;20029;-63
2022/08/20 09:44:42;;;;;;;20.95;16.50;;;;;;;;;;5049706;28;20062;-63
2022/08/20 09:47:10;;;;;;;21.48;16.20;;;;;;;;;;5050422;28;20081;-62
2022/08/20 09:49:36;;;;;;;20.45;14.65;;;;;;;;;;5049638;28;20495;-62
2022/08/20 09:52:03;;;;;;;19.75;12.68;;;;;;;;;;5040532;28;20087;-62
2022/08/20 09:54:30;;;;;;;18.27;13.05;;;;;;;;;;5050440;28;20542;-62
2022/08/20 09:57:02;;;;;;;23.25;15.15;;;;;;;;;;5049296;28;20041;-62
2022/08/20 09:59:29;;;;;;;23.67;15.02;;;;;;;;;;5050604;28;20203;-62
2022/08/20 10:01:55;;;;;;;16.80;11.75;;;;;;;;;;5042014;28;20044;-62
2022/08/20 10:04:21;;;;;;;19.17;13.07;;;;;;;;;;5043729;28;20037;-63
2022/08/20 10:06:47;;;;;;;17.50;12.40;;;;;;;;;;5039467;28;20104;-61
2022/08/20 10:09:13;;;;;;;17.38;11.73;;;;;;;;;;5050013;28;20079;-63
2022/08/20 10:11:39;;;;;;;18.45;10.45;;;;;;;;;;5048638;28;20036;-62
2022/08/20 10:14:07;;;;;;;14.93;10.95;;;;;;;;;;5048155;28;20111;-61
2022/08/20 10:16:33;;;;;;;14.45;10.68;;;;;;;;;;5048542;28;20125;-62
2022/08/20 10:18:59;;;;;;;14.82;10.65;;;;;;;;;;5048196;28;20104;-62
2022/08/20 10:21:25;;;;;;;15.32;9.75;;;;;;;;;;5047381;28;20447;-62
2022/08/20 10:23:51;;;;;;;14.57;9.13;;;;;;;;;;5042020;28;20099;-62
2022/08/20 10:26:18;;;;;;;14.20;9.63;;;;;;;;;;5052208;28;20036;-62
2022/08/20 10:28:44;;;;;;;14.80;8.82;;;;;;;;;;5048565;28;20025;-61
2022/08/20 10:31:11;;;;;;;11.43;8.38;;;;;;;;;;5049801;28;20186;-61
2022/08/20 10:33:38;;;;;;;9.20;7.78;;;;;;;;;;5049932;28;20033;-62
2022/08/20 10:36:08;;;;;;;12.80;8.20;;;;;;;;;;5049424;28;20037;-61
2022/08/20 10:38:34;;;;;;;13.65;8.70;;;;;;;;;;5048040;28;20024;-62
2022/08/20 10:41:00;;;;;;;13.45;8.32;;;;;;;;;;5045846;28;20036;-62
2022/08/20 10:43:27;;;;;;;11.77;8.35;;;;;;;;;;5050325;28;20033;-63
2022/08/20 10:45:53;;;;;;;11.85;8.57;;;;;;;;;;5049968;28;20049;-63
2022/08/20 10:48:19;;;;;;;9.30;7.32;;;;;;;;;;5038432;28;20026;-63
2022/08/20 10:50:45;;;;;;;11.48;7.82;;;;;;;;;;5046063;28;20033;-62
2022/08/20 10:53:11;;;;;;;11.23;8.05;;;;;;;;;;5050704;28;20090;-62
2022/08/20 10:55:37;;;;;;;9.35;7.18;;;;;;;;;;5050454;28;20567;-61
2022/08/20 10:58:07;;;;;;;11.95;6.82;;;;;;;;;;5057242;28;20017;-62
2022/08/20 11:00:34;;;;;;;8.65;6.13;;;;;;;;;;5051804;28;20112;-62
2022/08/20 11:03:00;;;;;;;10.60;7.88;;;;;;;;;;5062990;28;20029;-62
2022/08/20 11:05:26;;;;;;;9.93;6.65;;;;;;;;;;5054607;28;20071;-62
2022/08/20 11:07:53;;;;;;;12.02;7.55;;;;;;;;;;5045623;28;20155;-63
2022/08/20 11:10:20;;;;;;;8.43;5.80;;;;;;;;;;5043849;28;20025;-63
2022/08/20 11:12:46;;;;;;;9.77;6.40;;;;;;;;;;5046492;28;20029;-62
2022/08/20 11:15:12;;;;;;;9.85;6.90;;;;;;;;;;5052626;28;20025;-62
2022/08/20 11:17:40;;;;;;;9.35;6.93;;;;;;;;;;5055089;28;20112;-62
2022/08/20 11:20:06;;;;;;;18.98;6.68;;;;;;;;;;5048224;28;20496;-63
2022/08/20 11:22:32;;;;;;;8.90;6.22;;;;;;;;;;5051980;28;20033;-61
2022/08/20 11:24:58;;;;;;;7.10;5.88;;;;;;;;;;5047330;28;20028;-62
2022/08/20 11:27:26;;;;;;;11.48;6.43;;;;;;;;;;5048743;28;20492;-61
2022/08/20 11:29:52;;;;;;;10.85;6.20;;;;;;;;;;5046271;28;20073;-62
2022/08/20 11:32:18;;;;;;;7.95;5.47;;;;;;;;;;5038409;28;20025;-62
2022/08/20 11:34:44;;;;;;;7.68;5.57;;;;;;;;;;5036693;28;20060;-62
2022/08/20 11:37:11;;;;;;;8.57;6.10;;;;;;;;;;5046755;28;20029;-63
2022/08/20 11:39:37;;;;;;;10.85;5.22;;;;;;;;;;5041601;28;20033;-62
2022/08/20 11:42:03;;;;;;;8.20;5.60;;;;;;;;;;5049806;28;20108;-62
2022/08/20 11:44:29;;;;;;;11.07;5.90;;;;;;;;;;5052171;28;20029;-61
2022/08/20 11:46:58;;;;;;;8.50;5.43;;;;;;;;;;5051019;28;20091;-62
2022/08/20 11:49:24;;;;;;;9.95;5.38;;;;;;;;;;5045687;28;20108;-62
2022/08/20 11:51:50;;;;;;;8.85;5.57;;;;;;;;;;5046392;28;20060;-63
2022/08/20 11:54:16;;;;;;;7.03;4.65;;;;;;;;;;5052406;28;20025;-63
2022/08/20 11:56:42;;;;;;;6.70;4.78;;;;;;;;;;5049913;28;20071;-62
2022/08/20 11:59:08;;;;;;;8.73;5.18;;;;;;;;;;5050782;28;20041;-63
2022/08/20 12:01:34;;;;;;;9.02;4.85;;;;;;;;;;5050170;28;20025;-62
2022/08/20 12:04:00;;;;;;;10.55;5.00;;;;;;;;;;5052041;28;20028;-63
2022/08/20 12:06:26;;;;;;;8.35;4.72;;;;;;;;;;5051034;28;20021;-63
2022/08/20 12:08:52;;;;;;;6.78;4.57;;;;;;;;;;5044915;28;20594;-63
2022/08/20 12:11:18;;;;;;;5.05;4.35;;;;;;;;;;5045603;28;20024;-62
2022/08/20 12:13:44;;;;;;;6.80;4.82;;;;;;;;;;5048744;28;20537;-62
2022/08/20 12:16:10;;;;;;;5.82;4.63;;;;;;;;;;5045332;28;20036;-63
2022/08/20 12:18:36;;;;;;;7.82;4.97;;;;;;;;;;5049196;28;20033;-63
2022/08/20 12:21:02;;;;;;;6.05;4.68;;;;;;;;;;5053247;28;20094;-63
2022/08/20 12:23:28;;;;;;;8.65;4.15;;;;;;;;;;5055321;28;20032;-63
2022/08/20 12:25:54;;;;;;;8.73;4.15;;;;;;;;;;5048161;28;20029;-63
2022/08/20 12:28:21;;;;;;;6.50;4.72;;;;;;;;;;5048883;28;20566;-62
2022/08/20 12:30:47;;;;;;;7.63;4.65;;;;;;;;;;5049884;28;20060;-63
2022/08/20 12:33:13;;;;;;;7.28;5.55;;;;;;;;;;5050153;28;20031;-62
2022/08/20 12:35:39;;;;;;;7.35;4.97;;;;;;;;;;5051280;28;20029;-63
2022/08/20 12:38:05;;;;;;;8.90;5.50;;;;;;;;;;5056056;28;20385;-63
2022/08/20 12:40:31;;;;;;;8.88;5.05;;;;;;;;;;5055128;28;20053;-63
2022/08/20 12:42:57;;;;;;;14.63;5.32;;;;;;;;;;5047761;28;20131;-63
2022/08/20 12:45:23;;;;;;;10.30;5.13;;;;;;;;;;5048212;28;20101;-63
2022/08/20 12:47:49;;;;;;;7.53;5.13;;;;;;;;;;5050212;28;20068;-62
2022/08/20 12:50:21;;;;;;;12.45;5.80;;;;;;;;;;5047867;28;20032;-63
2022/08/20 12:52:47;;;;;;;7.60;5.95;;;;;;;;;;5049581;28;20032;-63
2022/08/20 12:55:14;;;;;;;7.45;6.03;;;;;;;;;;5045868;28;20991;-63
2022/08/20 12:57:42;;;;;;;11.52;5.95;;;;;;;;;;5051069;28;20029;-61
2022/08/20 13:00:10;;;;;;;40.05;7.28;;;;;;;;;;5049065;28;20064;-62
2022/08/20 13:02:37;;;;;;;6.70;5.30;;;;;;;;;;5044329;28;20047;-62
2022/08/20 13:05:04;;;;;;;9.65;5.15;;;;;;;;;;5044581;28;20107;-62
2022/08/20 13:07:30;;;;;;;9.35;6.07;;;;;;;;;;5045470;28;20028;-63
2022/08/20 13:09:56;;;;;;;6.03;5.15;;;;;;;;;;5048096;28;20039;-62
2022/08/20 13:12:22;;;;;;;7.15;5.38;;;;;;;;;;5048789;28;20396;-62
2022/08/20 13:14:48;;;;;;;10.32;7.47;;;;;;;;;;5046713;28;20037;-61
2022/08/20 13:17:16;;;;;;;8.10;4.90;;;;;;;;;;5040488;28;20061;-62
2022/08/20 13:19:43;;;;;;;10.10;5.47;;;;;;;;;;5047459;28;20051;-62
2022/08/20 13:22:09;;;;;;;7.30;5.93;;;;;;;;;;5049488;28;20090;-62
2022/08/20 13:24:36;;;;;;;9.88;6.07;;;;;;;;;;5048627;28;20021;-62
2022/08/20 13:27:10;;;;;;;10.32;6.95;;;;;;;;;;5047399;28;20025;-62
2022/08/20 13:29:36;;;;;;;12.98;5.80;;;;;;;;;;5039282;28;20033;-62
2022/08/20 13:32:02;;;;;;;6.65;5.47;;;;;;;;;;5040462;28;20499;-62
2022/08/20 13:34:28;;;;;;;9.40;6.07;;;;;;;;;;5042490;28;20127;-63
2022/08/20 13:36:54;;;;;;;8.57;6.43;;;;;;;;;;5047502;28;20442;-63
2022/08/20 13:39:21;;;;;;;8.48;6.65;;;;;;;;;;5047434;28;20426;-63
2022/08/20 13:41:47;;;;;;;8.63;6.35;;;;;;;;;;5050086;28;20060;-63
2022/08/20 13:44:13;;;;;;;10.50;6.40;;;;;;;;;;5049641;28;20021;-62
2022/08/20 13:46:39;;;;;;;9.68;6.68;;;;;;;;;;5036932;28;20025;-63
2022/08/20 13:49:05;;;;;;;10.55;6.60;;;;;;;;;;5047379;28;20087;-62
2022/08/20 13:51:31;;;;;;;11.75;7.78;;;;;;;;;;5050938;28;20032;-62
2022/08/20 13:53:57;;;;;;;9.30;6.25;;;;;;;;;;5053674;28;20442;-63
2022/08/20 13:56:23;;;;;;;12.20;7.47;;;;;;;;;;5055589;28;20029;-62
2022/08/20 13:58:49;;;;;;;11.23;6.82;;;;;;;;;;5049910;28;20116;-62
2022/08/20 14:01:15;;;;;;;11.60;6.65;;;;;;;;;;5046542;28;20028;-61
2022/08/20 14:03:41;;;;;;;9.73;6.57;;;;;;;;;;5042428;28;20564;-61
2022/08/20 14:06:08;;;;;;;8.93;7.35;;;;;;;;;;5044721;28;20025;-62
2022/08/20 14:08:34;;;;;;;9.05;7.45;;;;;;;;;;5046348;28;20044;-62
2022/08/20 14:11:00;;;;;;;9.95;6.88;;;;;;;;;;5042677;28;20028;-62
2022/08/20 14:13:27;;;;;;;9.23;6.85;;;;;;;;;;5042225;28;20692;-63
2022/08/20 14:15:55;;;;;;;10.98;7.30;;;;;;;;;;5051622;28;20539;-63
2022/08/20 14:18:21;;;;;;;9.50;6.72;;;;;;;;;;5049857;28;20021;-62
2022/08/20 14:20:47;;;;;;;11.90;6.95;;;;;;;;;;5046024;28;20040;-62
2022/08/20 14:23:13;;;;;;;11.15;7.10;;;;;;;;;;5051070;28;20056;-62
2022/08/20 14:25:39;;;;;;;11.10;8.23;;;;;;;;;;5047554;28;20033;-63
2022/08/20 14:28:10;;;;;;;11.70;7.90;;;;;;;;;;5042638;28;20029;-62
2022/08/20 14:30:36;;;;;;;13.55;7.55;;;;;;;;;;5050037;28;20088;-62